sensor_id;sensor_type;location;lat;lon;timestamp;temperature;humidity
21778;DHT22;11050;52.222;20.916;2023-10-19T00:01:15;2.40;99.90
21778;DHT22;11050;52.222;20.916;2023-10-19T00:03:43;2.40;99.90
21778;DHT22;11050;52.222;20.916;2023-10-19T00:06:11;2.30;99.90
21778;DHT22;11050;52.222;20.916;2023-10-19T00:08:37;2.40;99.90
21778;DHT22;11050;52.222;20.916;2023-10-19T00:11:10;2.30;99.90
21778;DHT22;11050;52.222;20.916;2023-10-19T00:13:46;2.30;99.90
21778;DHT22;11050;52.222;20.916;2023-10-19T00:16:15;2.30;99.90
21778;DHT22;11050;52.222;20.916;2023-10-19T00:18:46;2.30;99.90
21778;DHT22;11050;52.222;20.916;2023-10-19T00:21:13;2.30;99.90
21778;DHT22;11050;52.222;20.916;2023-10-19T00:23:54;2.30;99.90
21778;DHT22;11050;52.222;20.916;2023-10-19T00:26:22;2.20;99.90
21778;DHT22;11050;52.222;20.916;2023-10-19T00:28:52;2.20;99.90
21778;DHT22;11050;52.222;20.916;2023-10-19T00:31:21;2.30;99.90
21778;DHT22;11050;52.222;20.916;2023-10-19T00:33:48;2.30;99.90
21778;DHT22;11050;52.222;20.916;2023-10-19T00:36:17;2.30;99.90
21778;DHT22;11050;52.222;20.916;2023-10-19T00:38:45;2.30;99.90
21778;DHT22;11050;52.222;20.916;2023-10-19T00:41:17;2.30;99.90
21778;DHT22;11050;52.222;20.916;2023-10-19T00:43:50;2.30;99.90
21778;DHT22;11050;52.222;20.916;2023-10-19T00:46:22;2.20;99.90
21778;DHT22;11050;52.222;20.916;2023-10-19T00:48:56;2.30;99.90
21778;DHT22;11050;52.222;20.916;2023-10-19T00:51:28;2.30;99.90
21778;DHT22;11050;52.222;20.916;2023-10-19T00:53:58;2.20;99.90
21778;DHT22;11050;52.222;20.916;2023-10-19T00:56:41;2.20;99.90
21778;DHT22;11050;52.222;20.916;2023-10-19T00:59:18;2.20;99.90
21778;DHT22;11050;52.222;20.916;2023-10-19T01:01:51;2.20;99.90
21778;DHT22;11050;52.222;20.916;2023-10-19T01:04:23;2.20;99.90
21778;DHT22;11050;52.222;20.916;2023-10-19T01:06:50;2.20;99.90
21778;DHT22;11050;52.222;20.916;2023-10-19T01:09:35;2.20;99.90
21778;DHT22;11050;52.222;20.916;2023-10-19T01:12:02;2.20;99.90
21778;DHT22;11050;52.222;20.916;2023-10-19T01:15:06;2.20;99.90
21778;DHT22;11050;52.222;20.916;2023-10-19T01:17:45;2.20;99.90
21778;DHT22;11050;52.222;20.916;2023-10-19T01:20:21;2.20;99.90
21778;DHT22;11050;52.222;20.916;2023-10-19T01:23:07;2.20;99.90
21778;DHT22;11050;52.222;20.916;2023-10-19T01:28:16;2.20;99.90
21778;DHT22;11050;52.222;20.916;2023-10-19T01:30:46;2.20;99.90
21778;DHT22;11050;52.222;20.916;2023-10-19T01:33:17;2.20;99.90
21778;DHT22;11050;52.222;20.916;2023-10-19T01:35:46;2.20;99.90
21778;DHT22;11050;52.222;20.916;2023-10-19T01:38:31;2.20;99.90
21778;DHT22;11050;52.222;20.916;2023-10-19T01:41:01;2.30;99.90
21778;DHT22;11050;52.222;20.916;2023-10-19T01:43:33;2.20;99.90
21778;DHT22;11050;52.222;20.916;2023-10-19T01:46:02;2.30;99.90
21778;DHT22;11050;52.222;20.916;2023-10-19T01:48:31;2.30;99.90
21778;DHT22;11050;52.222;20.916;2023-10-19T01:51:03;2.30;99.90
21778;DHT22;11050;52.222;20.916;2023-10-19T01:53:34;2.30;99.90
21778;DHT22;11050;52.222;20.916;2023-10-19T01:56:06;2.30;99.90
21778;DHT22;11050;52.222;20.916;2023-10-19T01:58:36;2.30;99.90
21778;DHT22;11050;52.222;20.916;2023-10-19T02:01:03;2.30;99.90
21778;DHT22;11050;52.222;20.916;2023-10-19T02:03:53;2.30;99.90
21778;DHT22;11050;52.222;20.916;2023-10-19T02:06:21;2.30;99.90
21778;DHT22;11050;52.222;20.916;2023-10-19T02:09:09;2.30;99.90
21778;DHT22;11050;52.222;20.916;2023-10-19T02:11:43;2.30;99.90
21778;DHT22;11050;52.222;20.916;2023-10-19T02:14:13;2.30;99.90
21778;DHT22;11050;52.222;20.916;2023-10-19T02:16:41;2.30;99.90
21778;DHT22;11050;52.222;20.916;2023-10-19T02:19:16;2.30;99.90
21778;DHT22;11050;52.222;20.916;2023-10-19T02:21:42;2.30;99.90
21778;DHT22;11050;52.222;20.916;2023-10-19T02:24:10;2.30;99.90
21778;DHT22;11050;52.222;20.916;2023-10-19T02:26:46;2.30;99.90
21778;DHT22;11050;52.222;20.916;2023-10-19T02:29:19;2.20;99.90
21778;DHT22;11050;52.222;20.916;2023-10-19T02:31:47;2.30;99.90
21778;DHT22;11050;52.222;20.916;2023-10-19T02:34:13;2.30;99.90
21778;DHT22;11050;52.222;20.916;2023-10-19T02:36:43;2.30;99.90
21778;DHT22;11050;52.222;20.916;2023-10-19T02:39:12;2.30;99.90
21778;DHT22;11050;52.222;20.916;2023-10-19T02:41:45;2.20;99.90
21778;DHT22;11050;52.222;20.916;2023-10-19T02:44:20;2.30;99.90
21778;DHT22;11050;52.222;20.916;2023-10-19T02:46:55;2.20;99.90
21778;DHT22;11050;52.222;20.916;2023-10-19T02:49:25;2.30;99.90
21778;DHT22;11050;52.222;20.916;2023-10-19T02:51:53;2.30;99.90
21778;DHT22;11050;52.222;20.916;2023-10-19T02:54:24;2.30;99.90
21778;DHT22;11050;52.222;20.916;2023-10-19T02:56:52;2.30;99.90
21778;DHT22;11050;52.222;20.916;2023-10-19T02:59:23;2.30;99.90
21778;DHT22;11050;52.222;20.916;2023-10-19T03:01:58;2.30;99.90
21778;DHT22;11050;52.222;20.916;2023-10-19T03:04:37;2.30;99.90
21778;DHT22;11050;52.222;20.916;2023-10-19T03:07:04;2.30;99.90
21778;DHT22;11050;52.222;20.916;2023-10-19T03:09:30;2.30;99.90
21778;DHT22;11050;52.222;20.916;2023-10-19T03:11:58;2.30;99.90
21778;DHT22;11050;52.222;20.916;2023-10-19T03:14:30;2.30;99.90
21778;DHT22;11050;52.222;20.916;2023-10-19T03:16:57;2.30;99.90
21778;DHT22;11050;52.222;20.916;2023-10-19T03:19:25;2.30;99.90
21778;DHT22;11050;52.222;20.916;2023-10-19T03:21:51;2.30;99.90
21778;DHT22;11050;52.222;20.916;2023-10-19T03:24:18;2.30;99.90
21778;DHT22;11050;52.222;20.916;2023-10-19T03:27:07;2.30;99.90
21778;DHT22;11050;52.222;20.916;2023-10-19T03:29:51;2.30;99.90
21778;DHT22;11050;52.222;20.916;2023-10-19T03:32:21;2.30;99.90
21778;DHT22;11050;52.222;20.916;2023-10-19T03:34:55;2.30;99.90
21778;DHT22;11050;52.222;20.916;2023-10-19T03:37:25;2.30;99.90
21778;DHT22;11050;52.222;20.916;2023-10-19T03:39:53;2.30;99.90
21778;DHT22;11050;52.222;20.916;2023-10-19T03:42:21;2.30;99.90
21778;DHT22;11050;52.222;20.916;2023-10-19T03:44:51;2.30;99.90
21778;DHT22;11050;52.222;20.916;2023-10-19T03:47:19;2.30;99.90
21778;DHT22;11050;52.222;20.916;2023-10-19T03:49:46;2.30;99.90
21778;DHT22;11050;52.222;20.916;2023-10-19T03:52:13;2.30;99.90
21778;DHT22;11050;52.222;20.916;2023-10-19T03:54:40;2.40;99.90
21778;DHT22;11050;52.222;20.916;2023-10-19T03:57:08;2.40;99.90
21778;DHT22;11050;52.222;20.916;2023-10-19T03:59:38;2.40;99.90
21778;DHT22;11050;52.222;20.916;2023-10-19T04:02:04;2.40;99.90
21778;DHT22;11050;52.222;20.916;2023-10-19T04:04:42;2.40;99.90
21778;DHT22;11050;52.222;20.916;2023-10-19T04:07:17;2.40;99.90
21778;DHT22;11050;52.222;20.916;2023-10-19T04:09:50;2.40;99.90
21778;DHT22;11050;52.222;20.916;2023-10-19T04:12:28;2.40;99.90
21778;DHT22;11050;52.222;20.916;2023-10-19T04:14:57;2.40;99.90
21778;DHT22;11050;52.222;20.916;2023-10-19T04:17:26;2.40;99.90
21778;DHT22;11050;52.222;20.916;2023-10-19T04:19:53;2.50;99.90
21778;DHT22;11050;52.222;20.916;2023-10-19T04:22:20;2.50;99.90
21778;DHT22;11050;52.222;20.916;2023-10-19T04:24:52;2.50;99.90
21778;DHT22;11050;52.222;20.916;2023-10-19T04:27:18;2.50;99.90
21778;DHT22;11050;52.222;20.916;2023-10-19T04:29:48;2.50;99.90
21778;DHT22;11050;52.222;20.916;2023-10-19T04:32:15;2.50;99.90
21778;DHT22;11050;52.222;20.916;2023-10-19T04:34:50;2.50;99.90
21778;DHT22;11050;52.222;20.916;2023-10-19T04:37:17;2.50;99.90
21778;DHT22;11050;52.222;20.916;2023-10-19T04:39:44;2.50;99.90
21778;DHT22;11050;52.222;20.916;2023-10-19T04:42:15;2.60;99.90
21778;DHT22;11050;52.222;20.916;2023-10-19T04:44:41;2.50;99.90
21778;DHT22;11050;52.222;20.916;2023-10-19T04:47:06;2.50;99.90
21778;DHT22;11050;52.222;20.916;2023-10-19T04:49:32;2.60;99.90
21778;DHT22;11050;52.222;20.916;2023-10-19T04:51:58;2.60;99.90
21778;DHT22;11050;52.222;20.916;2023-10-19T04:54:23;2.60;99.90
21778;DHT22;11050;52.222;20.916;2023-10-19T04:56:49;2.60;99.90
21778;DHT22;11050;52.222;20.916;2023-10-19T04:59:18;2.60;99.90
21778;DHT22;11050;52.222;20.916;2023-10-19T05:01:43;2.60;99.90
21778;DHT22;11050;52.222;20.916;2023-10-19T05:04:09;2.60;99.90
21778;DHT22;11050;52.222;20.916;2023-10-19T05:06:34;2.60;99.90
21778;DHT22;11050;52.222;20.916;2023-10-19T05:09:00;2.60;99.90
21778;DHT22;11050;52.222;20.916;2023-10-19T05:11:28;2.60;99.90
21778;DHT22;11050;52.222;20.916;2023-10-19T05:13:54;2.60;99.90
21778;DHT22;11050;52.222;20.916;2023-10-19T05:16:20;2.60;99.90
21778;DHT22;11050;52.222;20.916;2023-10-19T05:18:45;2.60;99.90
21778;DHT22;11050;52.222;20.916;2023-10-19T05:21:11;2.60;99.90
21778;DHT22;11050;52.222;20.916;2023-10-19T05:23:38;2.60;99.90
21778;DHT22;11050;52.222;20.916;2023-10-19T05:26:04;2.60;99.90
21778;DHT22;11050;52.222;20.916;2023-10-19T05:28:32;2.60;99.90
21778;DHT22;11050;52.222;20.916;2023-10-19T05:30:58;2.60;99.90
21778;DHT22;11050;52.222;20.916;2023-10-19T05:33:25;2.70;99.90
21778;DHT22;11050;52.222;20.916;2023-10-19T05:35:52;2.70;99.90
21778;DHT22;11050;52.222;20.916;2023-10-19T05:38:18;2.70;99.90
21778;DHT22;11050;52.222;20.916;2023-10-19T05:40:50;2.70;99.90
21778;DHT22;11050;52.222;20.916;2023-10-19T05:43:17;2.70;99.90
21778;DHT22;11050;52.222;20.916;2023-10-19T05:45:43;2.80;99.90
21778;DHT22;11050;52.222;20.916;2023-10-19T05:48:10;2.80;99.90
21778;DHT22;11050;52.222;20.916;2023-10-19T05:50:37;2.90;99.90
21778;DHT22;11050;52.222;20.916;2023-10-19T05:53:03;2.90;99.90
21778;DHT22;11050;52.222;20.916;2023-10-19T05:55:30;2.90;99.90
21778;DHT22;11050;52.222;20.916;2023-10-19T05:57:57;3.00;99.90
21778;DHT22;11050;52.222;20.916;2023-10-19T06:00:23;3.00;99.90
21778;DHT22;11050;52.222;20.916;2023-10-19T06:02:52;3.10;99.90
21778;DHT22;11050;52.222;20.916;2023-10-19T06:05:18;3.10;99.90
21778;DHT22;11050;52.222;20.916;2023-10-19T06:07:45;3.20;99.90
21778;DHT22;11050;52.222;20.916;2023-10-19T06:10:20;3.20;99.90
21778;DHT22;11050;52.222;20.916;2023-10-19T06:12:49;3.30;99.90
21778;DHT22;11050;52.222;20.916;2023-10-19T06:15:17;3.40;99.90
21778;DHT22;11050;52.222;20.916;2023-10-19T06:17:46;3.50;99.90
21778;DHT22;11050;52.222;20.916;2023-10-19T06:20:14;3.50;99.90
21778;DHT22;11050;52.222;20.916;2023-10-19T06:22:55;3.60;99.90
21778;DHT22;11050;52.222;20.916;2023-10-19T06:25:26;3.70;99.90
21778;DHT22;11050;52.222;20.916;2023-10-19T06:27:53;3.80;99.90
21778;DHT22;11050;52.222;20.916;2023-10-19T06:30:22;3.90;99.90
21778;DHT22;11050;52.222;20.916;2023-10-19T06:32:50;4.10;99.90
21778;DHT22;11050;52.222;20.916;2023-10-19T06:35:19;4.10;99.90
21778;DHT22;11050;52.222;20.916;2023-10-19T06:37:46;4.30;99.90
21778;DHT22;11050;52.222;20.916;2023-10-19T06:40:13;4.30;99.90
21778;DHT22;11050;52.222;20.916;2023-10-19T06:42:41;4.40;99.90
21778;DHT22;11050;52.222;20.916;2023-10-19T06:45:07;4.50;99.90
21778;DHT22;11050;52.222;20.916;2023-10-19T06:47:35;4.60;99.90
21778;DHT22;11050;52.222;20.916;2023-10-19T06:50:05;4.70;99.90
21778;DHT22;11050;52.222;20.916;2023-10-19T06:52:34;4.70;99.90
21778;DHT22;11050;52.222;20.916;2023-10-19T06:55:02;4.80;99.90
21778;DHT22;11050;52.222;20.916;2023-10-19T06:57:30;4.90;99.90
21778;DHT22;11050;52.222;20.916;2023-10-19T07:00:01;5.00;99.90
21778;DHT22;11050;52.222;20.916;2023-10-19T07:02:36;5.00;99.90
21778;DHT22;11050;52.222;20.916;2023-10-19T07:05:03;5.20;99.90
21778;DHT22;11050;52.222;20.916;2023-10-19T07:07:29;5.30;99.90
21778;DHT22;11050;52.222;20.916;2023-10-19T07:09:55;5.40;99.90
21778;DHT22;11050;52.222;20.916;2023-10-19T07:12:20;5.50;99.90
21778;DHT22;11050;52.222;20.916;2023-10-19T07:14:46;5.60;99.90
21778;DHT22;11050;52.222;20.916;2023-10-19T07:17:12;5.70;99.90
21778;DHT22;11050;52.222;20.916;2023-10-19T07:19:42;5.70;99.90
21778;DHT22;11050;52.222;20.916;2023-10-19T07:22:08;5.80;99.90
21778;DHT22;11050;52.222;20.916;2023-10-19T07:24:35;5.90;99.90
21778;DHT22;11050;52.222;20.916;2023-10-19T07:27:03;6.00;99.90
21778;DHT22;11050;52.222;20.916;2023-10-19T07:29:33;6.10;99.90
21778;DHT22;11050;52.222;20.916;2023-10-19T07:32:04;6.20;99.90
21778;DHT22;11050;52.222;20.916;2023-10-19T07:34:33;6.30;99.90
21778;DHT22;11050;52.222;20.916;2023-10-19T07:37:00;6.50;99.90
21778;DHT22;11050;52.222;20.916;2023-10-19T07:39:26;6.60;99.90
21778;DHT22;11050;52.222;20.916;2023-10-19T07:41:55;6.70;99.90
21778;DHT22;11050;52.222;20.916;2023-10-19T07:44:22;6.80;99.90
21778;DHT22;11050;52.222;20.916;2023-10-19T07:46:48;7.00;99.90
21778;DHT22;11050;52.222;20.916;2023-10-19T07:49:14;7.10;99.90
21778;DHT22;11050;52.222;20.916;2023-10-19T07:51:47;7.20;99.90
21778;DHT22;11050;52.222;20.916;2023-10-19T07:54:13;7.40;99.90
21778;DHT22;11050;52.222;20.916;2023-10-19T07:56:39;7.50;99.90
21778;DHT22;11050;52.222;20.916;2023-10-19T07:59:05;7.60;99.90
21778;DHT22;11050;52.222;20.916;2023-10-19T08:01:32;7.70;99.90
21778;DHT22;11050;52.222;20.916;2023-10-19T08:03:58;7.80;99.90
21778;DHT22;11050;52.222;20.916;2023-10-19T08:06:24;7.90;99.90
21778;DHT22;11050;52.222;20.916;2023-10-19T08:08:51;8.00;99.90
21778;DHT22;11050;52.222;20.916;2023-10-19T08:11:18;8.10;99.90
21778;DHT22;11050;52.222;20.916;2023-10-19T08:13:44;8.20;99.90
21778;DHT22;11050;52.222;20.916;2023-10-19T08:16:09;8.30;99.90
21778;DHT22;11050;52.222;20.916;2023-10-19T08:18:37;8.40;99.90
21778;DHT22;11050;52.222;20.916;2023-10-19T08:21:03;8.50;99.90
21778;DHT22;11050;52.222;20.916;2023-10-19T08:23:29;8.60;99.90
21778;DHT22;11050;52.222;20.916;2023-10-19T08:25:57;8.70;99.90
21778;DHT22;11050;52.222;20.916;2023-10-19T08:28:24;8.70;99.90
21778;DHT22;11050;52.222;20.916;2023-10-19T08:30:49;8.80;99.90
21778;DHT22;11050;52.222;20.916;2023-10-19T08:33:23;8.90;99.90
21778;DHT22;11050;52.222;20.916;2023-10-19T08:35:52;9.00;99.90
21778;DHT22;11050;52.222;20.916;2023-10-19T08:38:19;9.00;99.90
21778;DHT22;11050;52.222;20.916;2023-10-19T08:40:47;9.10;99.90
21778;DHT22;11050;52.222;20.916;2023-10-19T08:43:14;9.10;99.90
21778;DHT22;11050;52.222;20.916;2023-10-19T08:45:43;9.20;99.90
21778;DHT22;11050;52.222;20.916;2023-10-19T08:48:09;9.20;99.90
21778;DHT22;11050;52.222;20.916;2023-10-19T08:50:36;9.30;99.90
21778;DHT22;11050;52.222;20.916;2023-10-19T08:53:09;9.40;99.90
21778;DHT22;11050;52.222;20.916;2023-10-19T08:55:35;9.40;99.90
21778;DHT22;11050;52.222;20.916;2023-10-19T08:58:01;9.50;99.90
21778;DHT22;11050;52.222;20.916;2023-10-19T09:00:48;9.60;99.90
21778;DHT22;11050;52.222;20.916;2023-10-19T09:03:19;9.60;99.90
21778;DHT22;11050;52.222;20.916;2023-10-19T09:05:47;9.70;99.90
21778;DHT22;11050;52.222;20.916;2023-10-19T09:08:17;9.70;99.90
21778;DHT22;11050;52.222;20.916;2023-10-19T09:10:45;9.80;99.90
21778;DHT22;11050;52.222;20.916;2023-10-19T09:13:12;9.80;99.90
21778;DHT22;11050;52.222;20.916;2023-10-19T09:15:40;9.90;99.90
21778;DHT22;11050;52.222;20.916;2023-10-19T09:18:14;10.00;99.90
21778;DHT22;11050;52.222;20.916;2023-10-19T09:20:40;10.10;99.90
21778;DHT22;11050;52.222;20.916;2023-10-19T09:23:08;10.20;99.90
21778;DHT22;11050;52.222;20.916;2023-10-19T09:25:33;10.30;99.90
21778;DHT22;11050;52.222;20.916;2023-10-19T09:28:01;10.40;99.90
21778;DHT22;11050;52.222;20.916;2023-10-19T09:30:30;10.50;99.90
21778;DHT22;11050;52.222;20.916;2023-10-19T09:32:57;10.60;99.90
21778;DHT22;11050;52.222;20.916;2023-10-19T09:35:24;10.70;99.90
21778;DHT22;11050;52.222;20.916;2023-10-19T09:37:54;10.80;99.90
21778;DHT22;11050;52.222;20.916;2023-10-19T09:40:21;10.90;99.90
21778;DHT22;11050;52.222;20.916;2023-10-19T09:42:53;10.90;99.90
21778;DHT22;11050;52.222;20.916;2023-10-19T09:45:25;11.00;99.90
21778;DHT22;11050;52.222;20.916;2023-10-19T09:47:55;11.10;99.90
21778;DHT22;11050;52.222;20.916;2023-10-19T09:50:22;11.10;99.90
21778;DHT22;11050;52.222;20.916;2023-10-19T09:52:48;11.20;99.90
21778;DHT22;11050;52.222;20.916;2023-10-19T09:55:27;11.30;99.90
21778;DHT22;11050;52.222;20.916;2023-10-19T09:58:12;11.30;99.90
21778;DHT22;11050;52.222;20.916;2023-10-19T10:00:46;11.50;99.90
21778;DHT22;11050;52.222;20.916;2023-10-19T10:03:51;11.60;99.90
21778;DHT22;11050;52.222;20.916;2023-10-19T10:09:18;11.90;99.90
21778;DHT22;11050;52.222;20.916;2023-10-19T10:11:52;12.00;99.90
21778;DHT22;11050;52.222;20.916;2023-10-19T10:14:26;12.10;99.90
21778;DHT22;11050;52.222;20.916;2023-10-19T10:17:01;12.10;99.90
21778;DHT22;11050;52.222;20.916;2023-10-19T10:19:28;12.10;99.90
21778;DHT22;11050;52.222;20.916;2023-10-19T10:22:04;12.00;99.90
21778;DHT22;11050;52.222;20.916;2023-10-19T10:24:46;12.00;99.90
21778;DHT22;11050;52.222;20.916;2023-10-19T10:27:16;12.10;99.90
21778;DHT22;11050;52.222;20.916;2023-10-19T10:29:55;12.10;99.90
21778;DHT22;11050;52.222;20.916;2023-10-19T10:32:48;12.10;99.90
21778;DHT22;11050;52.222;20.916;2023-10-19T10:38:10;12.20;99.80
21778;DHT22;11050;52.222;20.916;2023-10-19T10:40:57;12.30;99.40
21778;DHT22;11050;52.222;20.916;2023-10-19T10:43:23;12.30;99.30
21778;DHT22;11050;52.222;20.916;2023-10-19T10:45:48;12.30;98.90
21778;DHT22;11050;52.222;20.916;2023-10-19T10:48:18;12.30;98.90
21778;DHT22;11050;52.222;20.916;2023-10-19T10:50:45;12.40;98.30
21778;DHT22;11050;52.222;20.916;2023-10-19T10:53:12;12.40;98.90
21778;DHT22;11050;52.222;20.916;2023-10-19T10:55:39;12.40;97.80
21778;DHT22;11050;52.222;20.916;2023-10-19T10:58:05;12.30;97.90
21778;DHT22;11050;52.222;20.916;2023-10-19T11:00:31;12.30;97.90
21778;DHT22;11050;52.222;20.916;2023-10-19T11:03:06;12.30;97.90
21778;DHT22;11050;52.222;20.916;2023-10-19T11:05:33;12.30;97.70
21778;DHT22;11050;52.222;20.916;2023-10-19T11:08:11;12.20;97.30
21778;DHT22;11050;52.222;20.916;2023-10-19T11:10:47;12.20;97.20
21778;DHT22;11050;52.222;20.916;2023-10-19T11:13:15;12.10;97.60
21778;DHT22;11050;52.222;20.916;2023-10-19T11:15:49;12.10;97.60
21778;DHT22;11050;52.222;20.916;2023-10-19T11:18:40;12.10;97.80
21778;DHT22;11050;52.222;20.916;2023-10-19T11:21:14;12.10;97.90
21778;DHT22;11050;52.222;20.916;2023-10-19T11:23:50;12.20;98.10
21778;DHT22;11050;52.222;20.916;2023-10-19T11:26:22;12.20;97.90
21778;DHT22;11050;52.222;20.916;2023-10-19T11:29:02;12.20;97.70
21778;DHT22;11050;52.222;20.916;2023-10-19T11:31:35;12.20;97.30
21778;DHT22;11050;52.222;20.916;2023-10-19T11:34:05;12.20;97.00
21778;DHT22;11050;52.222;20.916;2023-10-19T11:36:34;12.20;97.10
21778;DHT22;11050;52.222;20.916;2023-10-19T11:39:00;12.20;97.30
21778;DHT22;11050;52.222;20.916;2023-10-19T11:41:25;12.20;97.50
21778;DHT22;11050;52.222;20.916;2023-10-19T11:43:51;12.20;97.60
21778;DHT22;11050;52.222;20.916;2023-10-19T11:46:18;12.20;97.50
21778;DHT22;11050;52.222;20.916;2023-10-19T11:48:45;12.20;97.30
21778;DHT22;11050;52.222;20.916;2023-10-19T11:51:11;12.20;96.90
21778;DHT22;11050;52.222;20.916;2023-10-19T11:53:38;12.20;96.30
21778;DHT22;11050;52.222;20.916;2023-10-19T11:56:08;12.20;96.70
21778;DHT22;11050;52.222;20.916;2023-10-19T11:58:37;12.10;96.70
21778;DHT22;11050;52.222;20.916;2023-10-19T12:01:05;12.00;96.80
21778;DHT22;11050;52.222;20.916;2023-10-19T12:03:34;12.00;96.80
21778;DHT22;11050;52.222;20.916;2023-10-19T12:06:08;11.90;96.80
21778;DHT22;11050;52.222;20.916;2023-10-19T12:08:36;11.90;96.90
21778;DHT22;11050;52.222;20.916;2023-10-19T12:11:04;11.80;97.00
21778;DHT22;11050;52.222;20.916;2023-10-19T12:13:32;11.80;97.10
21778;DHT22;11050;52.222;20.916;2023-10-19T12:15:58;11.70;97.30
21778;DHT22;11050;52.222;20.916;2023-10-19T12:18:24;11.70;97.40
21778;DHT22;11050;52.222;20.916;2023-10-19T12:20:54;11.70;97.40
21778;DHT22;11050;52.222;20.916;2023-10-19T12:23:25;11.70;97.40
21778;DHT22;11050;52.222;20.916;2023-10-19T12:25:51;11.70;96.70
21778;DHT22;11050;52.222;20.916;2023-10-19T12:28:18;11.60;96.70
21778;DHT22;11050;52.222;20.916;2023-10-19T12:30:44;11.60;97.00
21778;DHT22;11050;52.222;20.916;2023-10-19T12:33:10;11.60;97.40
21778;DHT22;11050;52.222;20.916;2023-10-19T12:35:41;11.60;97.80
21778;DHT22;11050;52.222;20.916;2023-10-19T12:38:13;11.60;98.00
21778;DHT22;11050;52.222;20.916;2023-10-19T12:40:43;11.60;98.30
21778;DHT22;11050;52.222;20.916;2023-10-19T12:43:10;11.60;98.30
21778;DHT22;11050;52.222;20.916;2023-10-19T12:45:36;11.60;98.20
21778;DHT22;11050;52.222;20.916;2023-10-19T12:48:06;11.50;98.10
21778;DHT22;11050;52.222;20.916;2023-10-19T12:50:34;11.50;98.10
21778;DHT22;11050;52.222;20.916;2023-10-19T12:53:00;11.50;98.20
21778;DHT22;11050;52.222;20.916;2023-10-19T12:55:26;11.40;98.20
21778;DHT22;11050;52.222;20.916;2023-10-19T12:57:53;11.30;98.50
21778;DHT22;11050;52.222;20.916;2023-10-19T13:00:19;11.30;98.80
21778;DHT22;11050;52.222;20.916;2023-10-19T13:03:05;11.20;98.80
21778;DHT22;11050;52.222;20.916;2023-10-19T13:05:36;11.20;98.90
21778;DHT22;11050;52.222;20.916;2023-10-19T13:08:08;11.10;99.10
21778;DHT22;11050;52.222;20.916;2023-10-19T13:10:39;11.00;99.20
21778;DHT22;11050;52.222;20.916;2023-10-19T13:13:08;11.00;99.50
21778;DHT22;11050;52.222;20.916;2023-10-19T13:15:39;10.90;99.70
21778;DHT22;11050;52.222;20.916;2023-10-19T13:18:10;10.80;99.80
21778;DHT22;11050;52.222;20.916;2023-10-19T13:20:47;10.80;99.90
21778;DHT22;11050;52.222;20.916;2023-10-19T13:23:14;10.80;99.90
21778;DHT22;11050;52.222;20.916;2023-10-19T13:25:42;10.70;99.90
21778;DHT22;11050;52.222;20.916;2023-10-19T13:28:33;10.70;99.90
21778;DHT22;11050;52.222;20.916;2023-10-19T13:31:04;10.60;99.90
21778;DHT22;11050;52.222;20.916;2023-10-19T13:33:30;10.60;99.90
21778;DHT22;11050;52.222;20.916;2023-10-19T13:35:55;10.60;99.90
21778;DHT22;11050;52.222;20.916;2023-10-19T13:38:21;10.60;99.90
21778;DHT22;11050;52.222;20.916;2023-10-19T13:40:48;10.50;99.90
21778;DHT22;11050;52.222;20.916;2023-10-19T13:43:16;10.60;99.90
21778;DHT22;11050;52.222;20.916;2023-10-19T13:45:47;10.50;99.90
21778;DHT22;11050;52.222;20.916;2023-10-19T13:48:14;10.50;99.90
21778;DHT22;11050;52.222;20.916;2023-10-19T13:50:46;10.50;99.90
21778;DHT22;11050;52.222;20.916;2023-10-19T13:53:14;10.50;99.90
21778;DHT22;11050;52.222;20.916;2023-10-19T13:55:41;10.60;99.90
21778;DHT22;11050;52.222;20.916;2023-10-19T13:58:07;10.50;99.90
21778;DHT22;11050;52.222;20.916;2023-10-19T14:00:34;10.50;99.90
21778;DHT22;11050;52.222;20.916;2023-10-19T14:03:00;10.60;99.90
21778;DHT22;11050;52.222;20.916;2023-10-19T14:05:27;10.50;99.90
21778;DHT22;11050;52.222;20.916;2023-10-19T14:07:54;10.60;99.90
21778;DHT22;11050;52.222;20.916;2023-10-19T14:10:20;10.50;99.90
21778;DHT22;11050;52.222;20.916;2023-10-19T14:12:47;10.50;99.90
21778;DHT22;11050;52.222;20.916;2023-10-19T14:15:18;10.50;99.90
21778;DHT22;11050;52.222;20.916;2023-10-19T14:17:47;10.50;99.90
21778;DHT22;11050;52.222;20.916;2023-10-19T14:20:15;10.50;99.90
21778;DHT22;11050;52.222;20.916;2023-10-19T14:22:43;10.50;99.90
21778;DHT22;11050;52.222;20.916;2023-10-19T14:25:12;10.50;99.90
21778;DHT22;11050;52.222;20.916;2023-10-19T14:27:49;10.50;99.90
21778;DHT22;11050;52.222;20.916;2023-10-19T14:30:19;10.50;99.90
21778;DHT22;11050;52.222;20.916;2023-10-19T14:32:48;10.50;99.90
21778;DHT22;11050;52.222;20.916;2023-10-19T14:35:15;10.50;99.90
21778;DHT22;11050;52.222;20.916;2023-10-19T14:37:44;10.50;99.90
21778;DHT22;11050;52.222;20.916;2023-10-19T14:40:19;10.50;99.90
21778;DHT22;11050;52.222;20.916;2023-10-19T14:42:47;10.40;99.90
21778;DHT22;11050;52.222;20.916;2023-10-19T14:45:17;10.40;99.90
21778;DHT22;11050;52.222;20.916;2023-10-19T14:47:47;10.40;99.90
21778;DHT22;11050;52.222;20.916;2023-10-19T14:50:15;10.30;99.90
21778;DHT22;11050;52.222;20.916;2023-10-19T14:52:44;10.30;99.90
21778;DHT22;11050;52.222;20.916;2023-10-19T14:55:11;10.30;99.90
21778;DHT22;11050;52.222;20.916;2023-10-19T14:57:40;10.20;99.90
21778;DHT22;11050;52.222;20.916;2023-10-19T15:00:09;10.20;99.90
21778;DHT22;11050;52.222;20.916;2023-10-19T15:02:56;10.20;99.90
21778;DHT22;11050;52.222;20.916;2023-10-19T15:05:23;10.10;99.90
21778;DHT22;11050;52.222;20.916;2023-10-19T15:07:53;10.10;99.90
21778;DHT22;11050;52.222;20.916;2023-10-19T15:10:25;10.00;99.90
21778;DHT22;11050;52.222;20.916;2023-10-19T15:12:52;10.00;99.90
21778;DHT22;11050;52.222;20.916;2023-10-19T15:15:18;10.00;99.90
21778;DHT22;11050;52.222;20.916;2023-10-19T15:17:45;10.00;99.90
21778;DHT22;11050;52.222;20.916;2023-10-19T15:20:13;10.00;99.90
21778;DHT22;11050;52.222;20.916;2023-10-19T15:22:44;9.90;99.90
21778;DHT22;11050;52.222;20.916;2023-10-19T15:25:11;9.90;99.90
21778;DHT22;11050;52.222;20.916;2023-10-19T15:27:39;9.90;99.90
21778;DHT22;11050;52.222;20.916;2023-10-19T15:30:06;9.90;99.90
21778;DHT22;11050;52.222;20.916;2023-10-19T15:32:41;9.90;99.90
21778;DHT22;11050;52.222;20.916;2023-10-19T15:35:11;9.90;99.90
21778;DHT22;11050;52.222;20.916;2023-10-19T15:37:41;9.80;99.90
21778;DHT22;11050;52.222;20.916;2023-10-19T15:40:08;9.90;99.90
21778;DHT22;11050;52.222;20.916;2023-10-19T15:42:39;9.80;99.90
21778;DHT22;11050;52.222;20.916;2023-10-19T15:45:11;9.80;99.90
21778;DHT22;11050;52.222;20.916;2023-10-19T15:47:41;9.80;99.90
21778;DHT22;11050;52.222;20.916;2023-10-19T15:50:08;9.80;99.90